createdAt,value
2022-09-04T00:00:12.605Z,99.90
2022-09-04T00:02:50.941Z,99.90
2022-09-04T00:05:25.326Z,99.90
2022-09-04T00:08:01.431Z,99.90
2022-09-04T00:10:32.502Z,99.90
2022-09-04T00:13:06.960Z,99.90
2022-09-04T00:15:37.554Z,99.90
2022-09-04T00:18:08.350Z,99.90
2022-09-04T00:20:41.534Z,99.90
2022-09-04T00:23:14.389Z,99.90
2022-09-04T00:25:46.740Z,99.90
2022-09-04T00:28:20.755Z,99.90
2022-09-04T00:30:54.843Z,99.90
2022-09-04T00:33:27.548Z,99.90
2022-09-04T00:35:59.792Z,99.90
2022-09-04T00:38:34.626Z,99.90
2022-09-04T00:41:08.302Z,99.90
2022-09-04T00:43:55.344Z,99.90
2022-09-04T00:46:37.516Z,99.90
2022-09-04T00:49:21.850Z,99.90
2022-09-04T00:51:56.922Z,99.90
2022-09-04T00:54:32.412Z,99.90
2022-09-04T00:57:14.258Z,99.90
2022-09-04T01:00:09.957Z,99.90
2022-09-04T01:02:44.779Z,99.90
2022-09-04T01:05:24.924Z,99.90
2022-09-04T01:08:01.686Z,99.90
2022-09-04T01:10:45.206Z,99.90
2022-09-04T01:13:17.165Z,99.90
2022-09-04T01:15:46.950Z,99.90
2022-09-04T01:18:18.076Z,99.90
2022-09-04T01:21:01.443Z,99.90
2022-09-04T01:23:54.597Z,99.90
2022-09-04T01:26:27.180Z,99.90
2022-09-04T01:29:02.546Z,99.90
2022-09-04T01:31:36.448Z,99.90
2022-09-04T01:34:14.412Z,99.90
2022-09-04T01:36:47.376Z,99.90
2022-09-04T01:39:18.567Z,99.90
2022-09-04T01:41:54.399Z,99.90
2022-09-04T01:44:23.656Z,99.90
2022-09-04T01:46:56.329Z,99.90
2022-09-04T01:49:29.388Z,99.90
2022-09-04T01:52:01.716Z,99.90
2022-09-04T01:54:35.270Z,99.90
2022-09-04T01:57:10.217Z,99.90
2022-09-04T01:59:44.476Z,99.90
2022-09-04T02:02:18.897Z,99.90
2022-09-04T02:04:53.079Z,99.90
2022-09-04T02:07:25.525Z,99.90
2022-09-04T02:09:57.794Z,99.90
2022-09-04T02:12:36.071Z,99.90
2022-09-04T02:15:07.806Z,99.90
2022-09-04T02:17:41.672Z,99.90
2022-09-04T02:20:17.736Z,99.90
2022-09-04T02:22:49.840Z,99.90
2022-09-04T02:25:24.411Z,99.90
2022-09-04T02:28:01.505Z,99.90
2022-09-04T02:30:33.301Z,99.90
2022-09-04T02:33:06.139Z,99.90
2022-09-04T02:35:38.242Z,99.90
2022-09-04T02:38:10.302Z,99.90
2022-09-04T02:40:41.905Z,99.90
2022-09-04T02:43:19.382Z,99.90
2022-09-04T02:45:53.918Z,99.90
2022-09-04T02:48:28.189Z,99.90
2022-09-04T02:51:07.168Z,99.90
2022-09-04T02:53:40.313Z,99.90
2022-09-04T02:56:18.855Z,99.90
2022-09-04T02:59:12.027Z,99.90
2022-09-04T03:01:49.188Z,99.90
2022-09-04T03:04:21.337Z,99.90
2022-09-04T03:06:52.274Z,99.90
2022-09-04T03:09:24.445Z,99.90
2022-09-04T03:11:57.368Z,99.90
2022-09-04T03:14:34.505Z,99.90
2022-09-04T03:17:07.217Z,99.90
2022-09-04T03:19:37.831Z,99.90
2022-09-04T03:22:08.869Z,99.90
2022-09-04T03:24:42.770Z,99.90
2022-09-04T03:27:12.045Z,99.90
2022-09-04T03:29:44.723Z,99.90
2022-09-04T03:32:17.173Z,99.90
2022-09-04T03:34:53.423Z,99.90
2022-09-04T03:37:40.636Z,99.90
2022-09-04T03:40:14.730Z,99.90
2022-09-04T03:42:51.627Z,99.90
2022-09-04T03:45:26.784Z,99.90
2022-09-04T03:48:07.908Z,99.90
2022-09-04T03:50:39.503Z,99.90
2022-09-04T03:53:15.181Z,99.90
2022-09-04T03:56:02.560Z,99.90
2022-09-04T03:58:38.223Z,99.90
2022-09-04T04:01:13.857Z,99.90
2022-09-04T04:03:51.710Z,99.90
2022-09-04T04:06:24.854Z,99.90
2022-09-04T04:09:11.866Z,99.90
2022-09-04T04:11:45.230Z,99.90
2022-09-04T04:14:19.227Z,99.90
2022-09-04T04:16:56.100Z,99.90
2022-09-04T04:19:34.762Z,99.90
2022-09-04T04:22:16.708Z,99.90
2022-09-04T04:24:54.548Z,99.90
2022-09-04T04:27:29.483Z,99.90
2022-09-04T04:30:08.689Z,99.90
2022-09-04T04:32:47.519Z,99.90
2022-09-04T04:35:20.374Z,99.90
2022-09-04T04:37:56.882Z,99.90
2022-09-04T04:40:30.367Z,99.90
2022-09-04T04:43:02.401Z,99.90
2022-09-04T04:45:50.901Z,99.90
2022-09-04T04:48:38.192Z,99.90
2022-09-04T04:51:20.891Z,99.90
2022-09-04T04:53:52.309Z,99.90
2022-09-04T04:56:24.973Z,99.90
2022-09-04T04:59:07.789Z,99.90
2022-09-04T05:01:50.523Z,99.90
2022-09-04T05:04:24.320Z,99.90
2022-09-04T05:06:57.842Z,99.90
2022-09-04T05:09:31.081Z,99.90
2022-09-04T05:12:04.579Z,99.90
2022-09-04T05:14:39.348Z,99.90
2022-09-04T05:17:15.382Z,99.90
2022-09-04T05:19:46.380Z,99.90
2022-09-04T05:22:19.682Z,99.90
2022-09-04T05:24:55.940Z,99.90
2022-09-04T05:27:42.583Z,99.90
2022-09-04T05:30:13.289Z,99.90
2022-09-04T05:32:46.530Z,99.90
2022-09-04T05:35:18.335Z,99.90
2022-09-04T05:37:52.156Z,99.90
2022-09-04T05:40:26.326Z,99.90
2022-09-04T05:43:03.205Z,99.90
2022-09-04T05:45:38.616Z,99.90
2022-09-04T05:48:14.197Z,99.90
2022-09-04T05:50:50.539Z,99.90
2022-09-04T05:53:30.936Z,99.90
2022-09-04T05:56:09.900Z,99.90
2022-09-04T05:58:47.703Z,99.90
2022-09-04T06:01:24.744Z,99.90
2022-09-04T06:04:06.694Z,99.90
2022-09-04T06:06:37.959Z,99.90
2022-09-04T06:09:25.214Z,99.90
2022-09-04T06:12:19.210Z,99.90
2022-09-04T06:15:03.847Z,99.90
2022-09-04T06:17:51.399Z,99.90
2022-09-04T06:20:34.888Z,99.90
2022-09-04T06:23:12.755Z,99.90
2022-09-04T06:25:50.002Z,99.90
2022-09-04T06:28:25.366Z,99.90
2022-09-04T06:30:59.013Z,99.90
2022-09-04T06:33:34.348Z,99.90
2022-09-04T06:36:16.314Z,99.90
2022-09-04T06:38:54.050Z,99.90
2022-09-04T06:41:40.387Z,99.90
2022-09-04T06:44:22.519Z,99.90
2022-09-04T06:46:57.572Z,99.90
2022-09-04T06:49:35.926Z,99.90
2022-09-04T06:52:13.058Z,99.90
2022-09-04T06:54:48.479Z,99.90
2022-09-04T06:57:24.644Z,99.90
2022-09-04T07:00:00.470Z,99.90
2022-09-04T07:02:36.646Z,99.90
2022-09-04T07:05:11.498Z,99.90
2022-09-04T07:07:45.071Z,99.90
2022-09-04T07:10:15.605Z,99.90
2022-09-04T07:13:03.122Z,99.90
2022-09-04T07:15:48.025Z,99.90
2022-09-04T07:18:22.854Z,99.90
2022-09-04T07:20:57.306Z,99.90
2022-09-04T07:23:32.723Z,99.90
2022-09-04T07:26:07.993Z,99.90
2022-09-04T07:28:48.446Z,99.90
2022-09-04T07:31:21.605Z,99.90
2022-09-04T07:33:54.625Z,99.90
2022-09-04T07:36:29.634Z,99.90
2022-09-04T07:39:06.268Z,99.90
2022-09-04T07:41:42.214Z,99.90
2022-09-04T07:44:15.421Z,99.90
2022-09-04T07:46:51.461Z,99.90
2022-09-04T07:49:24.039Z,99.90
2022-09-04T07:51:56.813Z,99.90
2022-09-04T07:54:31.086Z,99.90
2022-09-04T07:57:17.729Z,99.90
2022-09-04T07:59:55.407Z,99.90
2022-09-04T08:02:33.287Z,99.90
2022-09-04T08:05:19.904Z,99.90
2022-09-04T08:08:04.700Z,99.90
2022-09-04T08:10:36.933Z,99.90
2022-09-04T08:13:15.084Z,99.90
2022-09-04T08:15:46.468Z,99.90
2022-09-04T08:18:25.792Z,99.90
2022-09-04T08:23:42.487Z,99.90
2022-09-04T08:26:17.254Z,99.90
2022-09-04T08:29:03.832Z,99.90
2022-09-04T08:31:33.389Z,99.90
2022-09-04T08:34:15.275Z,99.90
2022-09-04T08:36:48.118Z,99.90
2022-09-04T08:39:20.313Z,99.90
2022-09-04T08:42:06.855Z,99.90
2022-09-04T08:44:47.744Z,99.90
2022-09-04T08:47:32.833Z,99.90
2022-09-04T08:50:11.289Z,99.90
2022-09-04T08:52:58.675Z,99.90
2022-09-04T08:55:50.055Z,99.90
2022-09-04T08:58:34.639Z,99.90
2022-09-04T09:01:10.129Z,99.90
2022-09-04T09:03:48.085Z,99.90
2022-09-04T09:06:32.501Z,99.90
2022-09-04T09:09:16.195Z,99.90
2022-09-04T09:12:03.768Z,99.90
2022-09-04T09:14:59.609Z,99.90
2022-09-04T09:17:35.195Z,99.90
2022-09-04T09:20:16.866Z,99.90
2022-09-04T09:23:13.727Z,99.90
2022-09-04T09:25:50.701Z,99.90
2022-09-04T09:28:41.493Z,99.90
2022-09-04T09:31:38.349Z,99.90
2022-09-04T09:34:32.413Z,99.90
2022-09-04T09:37:17.465Z,99.90
2022-09-04T09:40:04.281Z,99.90
2022-09-04T09:42:54.911Z,99.90
2022-09-04T09:45:36.873Z,99.90
2022-09-04T09:48:12.767Z,99.90
2022-09-04T09:50:59.989Z,99.90
2022-09-04T09:53:49.514Z,99.90
2022-09-04T09:56:36.861Z,99.90
2022-09-04T09:59:24.406Z,99.90
2022-09-04T10:02:09.092Z,99.90
2022-09-04T10:04:50.944Z,99.90
2022-09-04T10:07:38.905Z,99.90
2022-09-04T10:10:19.351Z,99.90
2022-09-04T10:13:00.610Z,99.90
2022-09-04T10:15:48.477Z,99.90
2022-09-04T10:18:33.427Z,99.90
2022-09-04T10:21:23.171Z,99.90
2022-09-04T10:24:01.254Z,99.90
2022-09-04T10:26:53.254Z,99.90
2022-09-04T10:29:42.918Z,99.90
2022-09-04T10:32:21.540Z,99.90
2022-09-04T10:35:03.308Z,99.90
2022-09-04T10:37:39.265Z,99.90
2022-09-04T10:40:42.332Z,99.90
2022-09-04T10:43:21.013Z,99.90
2022-09-04T10:45:55.778Z,99.90
2022-09-04T10:48:31.063Z,99.90
2022-09-04T10:51:33.573Z,99.90
2022-09-04T10:54:17.027Z,99.90
2022-09-04T10:56:52.995Z,99.90
2022-09-04T10:59:31.555Z,99.90
2022-09-04T11:02:12.650Z,99.90
2022-09-04T11:05:00.617Z,99.90
2022-09-04T11:07:43.203Z,99.90
2022-09-04T11:10:18.403Z,99.90
2022-09-04T11:12:55.457Z,99.90
2022-09-04T11:15:38.911Z,99.90
2022-09-04T11:18:28.466Z,99.90
2022-09-04T11:21:13.336Z,99.90
2022-09-04T11:23:59.806Z,99.90
2022-09-04T11:26:49.140Z,99.90
2022-09-04T11:29:32.648Z,99.90
2022-09-04T11:32:12.265Z,99.90
2022-09-04T11:34:53.039Z,99.90
2022-09-04T11:37:40.781Z,99.90
2022-09-04T11:40:22.566Z,99.90
2022-09-04T11:42:59.026Z,99.60
2022-09-04T11:45:36.561Z,99.20
2022-09-04T11:48:20.118Z,99.60
2022-09-04T11:51:01.538Z,97.60
2022-09-04T11:53:39.895Z,98.70
2022-09-04T11:56:19.041Z,95.10
2022-09-04T11:58:54.757Z,94.60
2022-09-04T12:01:30.246Z,89.80
2022-09-04T12:04:14.894Z,89.60
2022-09-04T12:06:53.183Z,89.00
2022-09-04T12:09:40.677Z,82.40
2022-09-04T12:12:21.341Z,83.30
2022-09-04T12:15:09.539Z,79.20
2022-09-04T12:17:56.420Z,75.90
2022-09-04T12:20:38.940Z,74.90
2022-09-04T12:23:22.653Z,75.10
2022-09-04T12:26:09.240Z,73.20
2022-09-04T12:31:19.608Z,68.70
2022-09-04T12:34:01.761Z,71.20
2022-09-04T12:36:42.486Z,72.20
2022-09-04T12:39:31.837Z,73.00
2022-09-04T12:42:04.195Z,71.90
2022-09-04T12:44:41.154Z,68.30
2022-09-04T12:49:49.975Z,70.10
2022-09-04T12:52:25.551Z,68.40
2022-09-04T12:55:01.378Z,68.10
2022-09-04T12:57:34.208Z,70.30
2022-09-04T13:00:07.573Z,70.90
2022-09-04T13:02:40.989Z,70.20
2022-09-04T13:05:20.311Z,68.00
2022-09-04T13:07:53.872Z,66.80
2022-09-04T13:10:24.776Z,65.90
2022-09-04T13:12:59.956Z,67.90
2022-09-04T13:15:38.356Z,67.30
2022-09-04T13:18:24.221Z,68.10
2022-09-04T13:20:59.797Z,66.70
2022-09-04T13:23:37.036Z,67.60
2022-09-04T13:26:24.450Z,68.00
2022-09-04T13:28:56.725Z,67.40
2022-09-04T13:31:38.388Z,70.70
2022-09-04T13:34:13.362Z,73.60
2022-09-04T13:36:50.502Z,70.50
2022-09-04T13:39:40.189Z,75.40
2022-09-04T13:42:26.779Z,68.90
2022-09-04T13:44:58.092Z,69.80
2022-09-04T13:47:32.101Z,67.90
2022-09-04T13:50:10.162Z,67.10
2022-09-04T13:52:44.190Z,71.40
2022-09-04T13:55:15.477Z,68.50
2022-09-04T13:57:47.684Z,68.60
2022-09-04T14:00:17.165Z,70.60
2022-09-04T14:02:46.222Z,71.50
2022-09-04T14:05:18.022Z,70.50
2022-09-04T14:07:49.271Z,68.80
2022-09-04T14:10:22.877Z,70.30
2022-09-04T14:13:04.250Z,70.30
2022-09-04T14:15:51.511Z,72.60
2022-09-04T14:18:27.456Z,71.10
2022-09-04T14:21:01.371Z,71.60
2022-09-04T14:23:38.778Z,69.70
2022-09-04T14:26:12.610Z,71.60
2022-09-04T14:28:45.422Z,69.80
2022-09-04T14:31:16.895Z,70.70
2022-09-04T14:33:49.892Z,70.30
2022-09-04T14:36:24.019Z,70.90
2022-09-04T14:39:01.754Z,72.20
2022-09-04T14:41:37.133Z,71.50
2022-09-04T14:44:12.780Z,72.70
2022-09-04T14:46:51.197Z,71.10
2022-09-04T14:49:23.535Z,70.40
2022-09-04T14:51:56.568Z,70.00
2022-09-04T14:54:29.976Z,73.70
2022-09-04T14:57:01.569Z,75.00
2022-09-04T14:59:35.022Z,74.40
2022-09-04T15:02:13.965Z,72.80
2022-09-04T15:04:47.055Z,72.90
2022-09-04T15:07:35.315Z,74.00
2022-09-04T15:10:11.043Z,75.20
2022-09-04T15:12:42.431Z,73.90
2022-09-04T15:15:15.011Z,71.80
2022-09-04T15:17:48.569Z,72.90
2022-09-04T15:20:22.291Z,72.00
2022-09-04T15:22:54.706Z,73.40
2022-09-04T15:25:58.327Z,73.00
2022-09-04T15:31:04.023Z,72.30
2022-09-04T15:33:32.846Z,71.40
2022-09-04T15:36:05.467Z,71.00
2022-09-04T15:38:36.990Z,69.40
2022-09-04T15:41:17.022Z,70.00
2022-09-04T15:43:47.976Z,70.80
2022-09-04T15:46:22.309Z,65.50
2022-09-04T15:48:55.226Z,90.10
2022-09-04T15:54:02.065Z,66.70
2022-09-04T15:56:36.974Z,65.90
2022-09-04T15:59:10.373Z,66.10
2022-09-04T16:01:43.233Z,68.00
2022-09-04T16:04:17.833Z,68.00
2022-09-04T16:06:48.059Z,69.10
2022-09-04T16:09:21.925Z,70.00
2022-09-04T16:11:59.777Z,71.10
2022-09-04T16:14:31.912Z,72.50
2022-09-04T16:17:02.317Z,73.20
2022-09-04T16:19:33.740Z,72.80
2022-09-04T16:22:07.444Z,72.60
2022-09-04T16:24:42.150Z,74.00
2022-09-04T16:27:14.071Z,73.50
2022-09-04T16:29:46.991Z,73.50
2022-09-04T16:32:20.575Z,74.20
2022-09-04T16:34:51.145Z,73.60
2022-09-04T16:37:23.105Z,74.30
2022-09-04T16:40:04.541Z,74.70
2022-09-04T16:42:38.570Z,74.60
2022-09-04T16:45:10.796Z,75.00
2022-09-04T16:47:45.174Z,75.10
2022-09-04T16:50:17.002Z,75.70
2022-09-04T16:53:12.496Z,75.50
2022-09-04T16:55:44.749Z,76.40
2022-09-04T16:58:35.409Z,76.10
2022-09-04T17:01:13.665Z,76.40
2022-09-04T17:04:13.645Z,76.80
2022-09-04T17:06:45.936Z,77.00
2022-09-04T17:09:21.522Z,78.10
2022-09-04T17:11:55.299Z,78.40
2022-09-04T17:14:30.333Z,78.70
2022-09-04T17:17:29.670Z,79.80
2022-09-04T17:20:03.497Z,80.10
2022-09-04T17:29:01.037Z,80.20
2022-09-04T17:29:16.513Z,81.80
2022-09-04T17:29:17.726Z,81.00
2022-09-04T17:31:19.654Z,83.30
2022-09-04T17:37:42.011Z,84.10
2022-09-04T17:40:38.423Z,84.70
2022-09-04T17:41:31.291Z,85.70
2022-09-04T17:42:30.166Z,86.10
2022-09-04T17:45:04.501Z,88.10
2022-09-04T17:47:34.769Z,88.10
2022-09-04T17:50:11.558Z,88.00
2022-09-04T17:52:55.802Z,88.20
2022-09-04T17:55:25.297Z,88.80
2022-09-04T17:57:56.839Z,89.30
2022-09-04T18:00:29.261Z,89.90
2022-09-04T18:03:00.915Z,90.00
2022-09-04T18:05:36.458Z,90.40
2022-09-04T18:08:19.583Z,90.50
2022-09-04T18:10:52.925Z,90.70
2022-09-04T18:13:36.384Z,91.50
2022-09-04T18:16:12.454Z,92.10
2022-09-04T18:18:44.572Z,92.30
2022-09-04T18:21:17.462Z,92.80
2022-09-04T18:23:52.841Z,93.70
2022-09-04T18:26:27.853Z,94.00
2022-09-04T18:37:20.119Z,94.70
2022-09-04T18:37:21.502Z,95.20
2022-09-04T18:37:47.459Z,95.70
2022-09-04T18:40:21.172Z,95.90
2022-09-04T18:50:22.074Z,96.40
2022-09-04T18:50:40.779Z,97.00
2022-09-04T18:50:50.779Z,97.20
2022-09-04T18:51:52.472Z,97.70
2022-09-04T18:54:24.939Z,97.60
2022-09-04T18:56:55.163Z,98.00
2022-09-04T18:59:26.205Z,98.50
2022-09-04T19:02:01.070Z,99.20
2022-09-04T19:04:43.422Z,99.90
2022-09-04T19:07:17.936Z,99.90
2022-09-04T19:09:59.950Z,99.90
2022-09-04T19:12:44.529Z,99.30
2022-09-04T19:15:37.005Z,98.80
2022-09-04T19:18:09.535Z,98.00
2022-09-04T19:20:46.543Z,97.70
2022-09-04T19:23:19.279Z,97.30
2022-09-04T19:25:54.796Z,97.30
2022-09-04T19:28:26.758Z,97.40
2022-09-04T19:30:58.840Z,97.30
2022-09-04T19:33:31.908Z,97.40
2022-09-04T19:36:03.641Z,97.00
2022-09-04T19:43:55.764Z,97.40
2022-09-04T19:46:03.405Z,97.30
2022-09-04T19:46:18.862Z,96.90
2022-09-04T19:47:29.084Z,97.10
2022-09-04T19:53:00.292Z,97.60
2022-09-04T19:53:31.773Z,97.70
2022-09-04T19:55:46.725Z,97.90
2022-09-04T19:58:19.084Z,97.60
2022-09-04T20:00:49.653Z,97.70
2022-09-04T20:03:24.977Z,97.50
2022-09-04T20:06:19.962Z,97.70
2022-09-04T20:08:53.138Z,97.70
2022-09-04T20:11:35.031Z,97.20
2022-09-04T20:14:14.437Z,96.50
2022-09-04T20:16:49.036Z,96.70
2022-09-04T20:19:27.871Z,96.50
2022-09-04T20:22:01.111Z,96.40
2022-09-04T20:24:36.359Z,95.60
2022-09-04T20:27:08.690Z,95.90
2022-09-04T20:29:41.343Z,95.90
2022-09-04T20:32:12.544Z,95.80
2022-09-04T20:34:46.341Z,95.50
2022-09-04T20:37:30.530Z,95.00
2022-09-04T20:40:13.059Z,94.90
2022-09-04T20:42:44.651Z,95.10
2022-09-04T20:48:24.348Z,95.30
2022-09-04T20:52:48.682Z,95.70
2022-09-04T20:52:57.422Z,95.50
2022-09-04T20:54:15.986Z,95.80
2022-09-04T20:59:29.522Z,95.50
2022-09-04T21:03:22.400Z,95.90
2022-09-04T21:03:24.233Z,96.00
2022-09-04T21:05:59.842Z,95.90
2022-09-04T21:08:35.481Z,95.80
2022-09-04T21:11:12.618Z,96.00
2022-09-04T21:13:56.800Z,96.00
2022-09-04T21:16:30.974Z,95.90
2022-09-04T21:19:27.819Z,96.10
2022-09-04T21:22:29.009Z,95.70
2022-09-04T21:25:18.282Z,95.80
2022-09-04T21:28:01.624Z,96.10
2022-09-04T21:30:41.864Z,96.50
2022-09-04T21:33:26.700Z,96.50
2022-09-04T21:36:25.457Z,97.00
2022-09-04T21:39:10.598Z,97.20
2022-09-04T21:41:49.525Z,97.20
2022-09-04T21:44:29.635Z,97.10
2022-09-04T21:47:08.483Z,97.10
2022-09-04T21:49:48.328Z,97.40
2022-09-04T21:52:29.238Z,97.50
2022-09-04T21:58:52.381Z,98.10
2022-09-04T22:02:40.790Z,98.40
2022-09-04T22:02:47.379Z,98.50
2022-09-04T22:04:12.082Z,99.30
2022-09-04T22:08:38.473Z,99.60
2022-09-04T22:13:27.692Z,99.90
2022-09-04T22:13:40.088Z,99.90
2022-09-04T22:15:38.612Z,99.90
2022-09-04T22:18:12.932Z,99.90
2022-09-04T22:20:53.847Z,99.90
2022-09-04T22:23:43.546Z,99.90
2022-09-04T22:26:27.556Z,99.90
2022-09-04T22:29:08.485Z,99.90
2022-09-04T22:31:51.947Z,99.90
2022-09-04T22:34:37.725Z,99.90
2022-09-04T22:37:30.322Z,99.90
2022-09-04T22:40:07.633Z,99.90
2022-09-04T22:42:47.373Z,99.90
2022-09-04T22:45:30.894Z,99.90
2022-09-04T22:48:09.610Z,99.90
2022-09-04T22:50:49.496Z,99.90
2022-09-04T22:53:37.349Z,99.90
2022-09-04T22:56:23.397Z,99.90
2022-09-04T22:59:07.601Z,99.90
2022-09-04T23:02:13.521Z,99.90
2022-09-04T23:04:54.063Z,99.90
2022-09-04T23:13:42.624Z,99.90
2022-09-04T23:13:51.735Z,99.90
2022-09-04T23:13:56.345Z,99.90
2022-09-04T23:16:28.289Z,99.90
2022-09-04T23:22:09.991Z,99.90
2022-09-04T23:26:41.492Z,99.90
2022-09-04T23:26:53.270Z,99.90
2022-09-04T23:28:27.483Z,99.90
2022-09-04T23:31:06.988Z,99.90
2022-09-04T23:33:55.867Z,99.90
2022-09-04T23:36:42.197Z,99.90
2022-09-04T23:39:27.326Z,99.90
2022-09-04T23:42:02.798Z,99.90
2022-09-04T23:44:41.723Z,99.90
2022-09-04T23:47:48.335Z,99.90
2022-09-04T23:50:22.685Z,99.90
2022-09-04T23:53:00.985Z,99.90
2022-09-04T23:55:48.913Z,99.90
2022-09-04T23:58:52.194Z,99.90
